Latest Coastal Weather Observations for Geelong Racecourse

IDV60701

Issued at 4:35 am EST Thursday 2 October 2014 (issued every 10 minutes, with the page automatically refreshed every 10 minutes)

About coastal observations | Map of coastal stations | Coastal observations for VIC | Marine services | Other Formats
Station Details ID: 087184 Name: GEELONG RACECOURSE Lat: -38.17 Lon: 144.38 Height: 12.9 m
Data from the previous 72 hours. | See also: Recent months at Geelong Racecourse
Date/Time
EST
Temp

°C
Wind Pressure Rain
since 9am
mm
Weather Cloud Vis
km
Sea
Height
m
Swell
Dir
 
Speed
knots
Gust
knots
hPa Trend Height
m
Period
s
Dir
02/04:30am 9.6 WNW 5 7 1023.4 - 0.2 - - - - - - -
02/04:00am 9.6 W 5 7 1023.4 - 0.2 - - - - - - -
02/03:30am 9.6 W 5 9 1023.5 - 0.2 - - - - - - -
02/03:00am 9.5 W 4 7 1023.6 - 0.2 - - - - - - -
02/02:30am 9.6 WNW 3 5 1023.7 - 0.2 - - - - - - -
02/02:00am 9.3 NW 3 5 1024.1 - 0.2 - - - - - - -
02/01:30am 9.0 WNW 2 4 1024.3 - 0.2 - - - - - - -
02/01:00am 8.8 WNW 4 6 1024.5 - 0.2 - - - - - - -
02/12:30am 8.4 WNW 6 8 1024.5 - 0.2 - - - - - - -
02/12:00am 8.5 WNW 5 7 1024.7 - 0.2 - - - - - - -
 
Date/Time
EST
Temp

°C
Wind Pressure Rain
since 9am
mm
Weather Cloud Vis
km
Sea
Height
m
Swell
Dir
 
Speed
knots
Gust
knots
hPa Trend Height
m
Period
s
Dir
01/11:30pm 8.5 NW 4 5 1025.0 - 0.2 - - - - - - -
01/11:00pm 8.1 NW 3 4 1025.1 - 0.2 - - - - - - -
01/10:30pm 8.1 WNW 3 4 1025.2 - 0.2 - - - - - - -
01/10:00pm 8.6 WNW 3 5 1025.3 - 0.2 - - - - - - -
01/09:30pm 8.9 W 4 5 1025.6 - 0.2 - - - - - - -
01/09:00pm 9.4 W 4 7 1025.5 - 0.2 - - - - - - -
01/08:30pm 9.6 W 5 7 1025.3 - 0.2 - - - - - - -
01/08:00pm 10.2 W 6 8 1025.3 - 0.2 - - - - - - -
01/07:30pm 10.1 WSW 5 6 1025.1 - 0.2 - - - - - - -
01/07:00pm 10.8 W 6 10 1024.7 - 0.2 - - - - - - -
01/06:30pm 11.4 W 7 10 1024.5 - 0.2 - - - - - - -
01/06:00pm 12.6 W 9 14 1024.4 - 0.2 - - - - - - -
01/05:30pm 13.7 WSW 7 11 1024.1 - 0.2 - - - - - - -
01/05:00pm 14.4 WSW 10 16 1024.0 - 0.2 - - - - - - -
01/04:30pm 13.6 WSW 11 16 1023.8 - 0.2 - - - - - - -
01/04:00pm 15.1 W 12 18 1023.8 - 0.2 - - - - - - -
01/03:30pm 14.8 WSW 12 19 1023.7 - 0.2 - - - - - - -
01/03:00pm 14.8 SW 8 13 1023.6 - 0.2 - - - - - - -
01/02:30pm 13.0 SSW 11 17 1024.0 - 0.2 - - - - - - -
01/02:21pm 12.9 S 16 22 1024.1 - 0.2 - - - - - - -
01/02:19pm 13.6 SW 20 26 1024.1 - 0.2 - - - - - - -
01/02:00pm 14.8 W 10 17 1023.8 - 0.2 - - - - - - -
01/01:30pm 13.4 SSW 6 9 1023.8 - 0.2 - - - - - - -
01/01:00pm 12.5 S 10 14 1024.3 - 0.2 - - - - - - -
01/12:30pm 14.1 WNW 5 9 1024.3 - 0.2 - - - - - - -
01/12:00pm 12.4 WSW 7 10 1024.2 - 0.2 Recent precip. - - - - - -
01/11:30am 11.1 SSW 9 11 1024.4 - 0.0 - - - - - - -
01/11:00am 11.5 SW 11 14 1024.2 - 0.0 - - - - - - -
01/10:30am 14.3 WSW 11 17 1023.9 - 0.0 - - - - - - -
01/10:00am 13.4 W 11 15 1023.7 - 0.0 - - - - - - -
01/09:30am 12.5 W 9 14 1023.6 - 0.0 - - - - - - -
01/09:00am 11.6 W 8 12 1023.1 - 5.0 - - - - - - -
01/08:30am 9.8 W 8 13 1022.6 - 5.0 - - - - - - -
01/08:00am 8.4 WNW 9 14 1022.0 - 5.0 - - - - - - -
01/07:30am 7.3 WNW 7 12 1021.6 - 5.0 - - - - - - -
01/07:00am 6.3 WNW 7 10 1021.1 - 5.0 - - - - - - -
01/06:30am 5.7 WNW 5 10 1020.7 - 5.0 - - - - - - -
01/06:00am 5.3 WNW 5 8 1020.0 - 5.0 - - - - - - -
01/05:30am 5.3 WNW 7 10 1019.6 - 5.0 - - - - - - -
01/05:00am 5.2 WNW 7 10 1019.1 - 5.0 - - - - - - -
01/04:30am 5.3 NW 7 9 1018.8 - 5.0 - - - - - - -
01/04:00am 5.7 WNW 6 11 1018.3 - 5.0 - - - - - - -
01/03:30am 5.8 WNW 6 10 1018.0 - 5.0 - - - - - - -
01/03:00am 6.4 W 7 11 1017.6 - 5.0 - - - - - - -
01/02:30am 6.6 W 9 12 1017.3 - 5.0 - - - - - - -
01/02:00am 6.8 W 9 14 1016.9 - 5.0 - - - - - - -
01/01:30am 6.4 WNW 8 13 1016.8 - 5.0 - - - - - - -
01/01:00am 6.5 W 9 14 1016.5 - 5.0 - - - - - - -
01/12:30am 6.8 W 10 15 1016.0 - 5.0 - - - - - - -
01/12:00am 7.2 W 14 22 1015.4 - 5.0 Recent precip. - - - - - -
 
Date/Time
EST
Temp

°C
Wind Pressure Rain
since 9am
mm
Weather Cloud Vis
km
Sea
Height
m
Swell
Dir
 
Speed
knots
Gust
knots
hPa Trend Height
m
Period
s
Dir
30/11:30pm 7.0 WNW 12 17 1014.8 - 5.0 - - - - - - -
30/11:00pm 6.9 WNW 11 16 1014.6 - 4.8 - - - - - - -
30/10:30pm 7.3 WNW 12 19 1014.5 - 4.6 - - - - - - -
30/10:00pm 7.3 W 15 22 1014.2 - 4.6 - - - - - - -
30/09:49pm 8.1 W 19 30 1014.4 - 4.4 - - - - - - -
30/09:47pm 8.3 W 21 30 1014.2 - 4.2 - - - - - - -
30/09:30pm 8.2 WNW 10 15 1013.4 - 4.2 - - - - - - -
30/09:00pm 8.3 WNW 8 13 1012.8 - 4.2 - - - - - - -
30/08:30pm 8.1 WNW 8 12 1012.6 - 4.2 - - - - - - -
30/08:00pm 7.7 WSW 6 9 1012.3 - 4.2 - - - - - - -
30/07:30pm 7.9 W 11 15 1011.9 - 4.0 - - - - - - -
30/07:06pm 8.7 WSW 20 24 1011.6 - 3.6 - - - - - - -
30/07:00pm 9.2 WNW 9 17 1011.3 - 2.8 - - - - - - -
30/06:30pm 9.3 WNW 11 16 1010.2 - 2.8 - - - - - - -
30/06:00pm 9.4 W 12 21 1010.0 - 2.8 Recent precip. - - - - - -
30/05:52pm 9.5 W 14 21 1010.0 - 2.8 - - - - - - -
30/05:35pm 9.8 WSW 25 37 1010.2 - 2.8 - - - - - - -
30/05:34pm 10.5 SW 27 37 1010.2 - 2.8 - - - - - - -
30/05:30pm 11.3 W 12 20 1009.6 - 2.6 - - - - - - -
30/05:00pm 12.4 WNW 13 20 1008.2 - 2.4 - - - - - - -
30/04:30pm 11.5 WNW 11 17 1007.9 - 2.4 - - - - - - -
30/04:00pm 10.3 WNW 12 18 1007.7 - 2.2 - - - - - - -
30/03:30pm 10.6 W 22 35 1007.8 - 1.8 - - - - - - -
30/03:00pm 11.5 W 21 34 1006.3 - 1.6 Rain - - - - - -
30/02:30pm 13.0 W 21 37 1004.7 - 0.8 - - - - - - -
30/02:15pm 14.3 W 25 42 1004.1 - 0.6 - - - - - - -
30/02:09pm 15.7 W 21 32 1003.9 - 0.2 - - - - - - -
30/02:07pm 16.6 W 20 29 1003.5 - 0.0 - - - - - - -
30/02:00pm 20.3 NW 20 34 1001.9 - 0.0 - - - - - - -
30/01:30pm 21.6 NW 20 33 1001.5 - 0.0 - - - - - - -
30/01:05pm 22.1 NW 19 30 1001.9 - 0.0 - - - - - - -
30/01:00pm 22.3 NNW 21 30 1002.0 - 0.0 - - - - - - -
30/12:30pm 21.4 NNW 20 31 1002.9 - 0.0 - - - - - - -
30/12:04pm 20.2 NNW 21 32 1003.8 - 0.0 - - - - - - -
30/12:00pm 20.3 NNW 22 32 1003.7 - 0.0 - - - - - - -
30/11:35am 20.9 NNW 20 30 1004.1 - 0.0 - - - - - - -
30/11:30am 21.1 NNW 20 28 1004.2 - 0.0 - - - - - - -
30/11:02am 21.0 NNW 18 29 1004.8 - 0.0 - - - - - - -
30/11:00am 21.0 NNW 17 25 1004.9 - 0.0 - - - - - - -
30/10:30am 20.5 NW 19 31 1005.4 - 0.0 - - - - - - -
30/10:00am 20.2 NNW 17 27 1005.8 - 0.0 - - - - - - -
30/09:47am 19.8 NNW 15 27 1006.0 - 0.0 - - - - - - -
30/09:30am 19.6 NNW 14 22 1006.4 - 0.0 - - - - - - -
30/09:00am 17.8 N 10 16 1007.0 - 0.0 - - - - - - -
30/08:30am 17.5 N 9 14 1007.5 - 0.0 - - - - - - -
30/08:00am 14.9 NNE 8 11 1008.0 - 0.0 - - - - - - -
30/07:30am 13.6 N 8 12 1008.2 - 0.0 - - - - - - -
30/07:00am 12.5 N 6 12 1008.8 - 0.0 - - - - - - -
30/06:30am 10.1 N 4 5 1009.2 - 0.0 - - - - - - -
30/06:00am 9.1 NW 3 5 1009.2 - 0.0 - - - - - - -
30/05:30am 9.3 NNW 3 3 1009.1 - 0.0 - - - - - - -
30/05:00am 9.1 WNW 2 2 1009.1 - 0.0 - - - - - - -
30/04:30am 9.4 NW 3 4 1008.6 - 0.0 - - - - - - -
30/04:00am 10.0 N 2 3 1008.6 - 0.0 - - - - - - -
30/03:30am 10.1 NNW 2 2 1009.0 - 0.0 - - - - - - -
30/03:00am 10.2 NNW 3 4 1009.4 - 0.0 - - - - - - -
30/02:30am 10.7 NNW 2 3 1009.7 - 0.0 - - - - - - -
30/02:00am 10.9 NNW 4 4 1010.2 - 0.0 - - - - - - -
30/01:30am 11.4 NW 2 3 1010.4 - 0.0 - - - - - - -
30/01:00am 12.2 CALM 0 0 1010.9 - 0.0 - - - - - - -
30/12:30am 12.6 CALM 0 0 1011.3 - 0.0 - - - - - - -
30/12:00am 12.8 SSW 1 3 1011.4 - 0.0 - - - - - - -
 
Date/Time
EST
Temp

°C
Wind Pressure Rain
since 9am
mm
Weather Cloud Vis
km
Sea
Height
m
Swell
Dir
 
Speed
knots
Gust
knots
hPa Trend Height
m
Period
s
Dir
29/11:30pm 13.0 S 4 5 1011.5 - 0.0 - - - - - - -
29/11:00pm 13.0 S 5 7 1011.7 - 0.0 - - - - - - -
29/10:30pm 13.2 SSE 3 5 1011.7 - 0.0 - - - - - - -
29/10:00pm 13.3 CALM 0 1 1011.5 - 0.0 - - - - - - -
29/09:30pm 13.5 WSW 3 5 1011.3 - 0.0 - - - - - - -
29/09:00pm 14.6 CALM 0 1 1011.2 - 0.0 - - - - - - -
29/08:30pm 15.7 N 3 4 1011.2 - 0.0 - - - - - - -
29/08:00pm 15.8 NNW 2 2 1011.0 - 0.0 - - - - - - -
29/07:30pm 17.2 NNW 3 4 1010.8 - 0.0 - - - - - - -
29/07:00pm 18.3 NW 4 5 1010.6 - 0.0 - - - - - - -
29/06:30pm 19.6 NNW 6 9 1010.3 - 0.0 - - - - - - -
29/06:00pm 20.6 NNW 10 15 1010.3 - 0.0 - - - - - - -
29/05:30pm 21.1 NNW 12 18 1010.2 - 0.0 - - - - - - -
29/05:00pm 21.4 NNW 13 20 1010.1 - 0.0 - - - - - - -
29/04:30pm 21.6 NW 12 20 1010.1 - 0.0 - - - - - - -
29/04:00pm 22.1 NW 13 22 1010.2 - 0.0 - - - - - - -
29/03:30pm 22.2 NNW 13 19 1010.1 - 0.0 - - - - - - -
29/03:00pm 22.5 NW 12 20 1010.3 - 0.0 - - - - - - -
29/02:30pm 22.5 N 10 15 1010.7 - 0.0 - - - - - - -
29/02:00pm 21.6 NW 11 17 1011.0 - 0.0 - - - - - - -
29/01:30pm 21.3 NNW 10 17 1011.1 - 0.0 - - - - - - -
29/01:00pm 20.5 NNW 11 16 1011.6 - 0.0 - - - - - - -
29/12:30pm 20.5 NW 11 16 1012.0 - 0.0 - - - - - - -
29/12:00pm 19.6 NW 13 18 1012.8 - 0.0 - - - - - - -
29/11:30am 19.4 WNW 11 19 1012.8 - 0.0 - - - - - - -
29/11:00am 18.5 NW 12 18 1012.9 - 0.0 - - - - - - -
29/10:30am 17.4 NW 11 15 1013.3 - 0.0 - - - - - - -
29/10:00am 17.9 WNW 11 16 1013.5 - 0.0 - - - - - - -
29/09:30am 16.5 WNW 11 16 1013.7 - 0.0 - - - - - - -
29/09:00am 16.1 WNW 11 15 1013.3 - 0.0 - - - - - - -
29/08:30am 15.3 NW 10 15 1013.1 - 0.0 - - - - - - -
29/08:00am 14.1 NW 9 13 1012.9 - 0.0 - - - - - - -
29/07:30am 13.5 NW 8 12 1012.6 - 0.0 - - - - - - -
29/07:00am 12.6 NW 6 9 1012.7 - 0.0 - - - - - - -
29/06:30am 11.6 NW 4 6 1012.4 - 0.0 - - - - - - -
29/06:00am 11.9 NW 7 10 1011.5 - 0.0 - - - - - - -
29/05:30am 12.2 WNW 9 15 1010.6 - 0.0 - - - - - - -
29/05:00am 12.2 WNW 9 15 1010.5 - 0.0 - - - - - - -

Other Formats:

Comma delimited format used in spreadsheet applications
http://www.bom.gov.au/fwo/IDV60701/IDV60701.94857.axf

JavaScript Object Notation format (JSON) in row-major order
http://www.bom.gov.au/fwo/IDV60701/IDV60701.94857.json